Time;durP1;ratioP1;P1;durP2;ratioP2;P2;SDS_P1;SDS_P2;PMS_P1;PMS_P2;Temp;Humidity;BMP_temperature;BMP_pressure;BME280_temperature;BME280_humidity;BME280_pressure;Samples;Min_cycle;Max_cycle;Signal;HPM_P1;HPM_P2
2021/07/31 00:01:08;;;;;;;6.25;5.28;;;;;;;20.31;57.08;99666.22;4881261;28;127984;-78
2021/07/31 00:03:34;;;;;;;7.35;5.20;;;;;;;20.29;57.31;99657.59;4914983;28;98189;-77
2021/07/31 00:06:00;;;;;;;9.40;5.63;;;;;;;20.27;57.99;99662.59;4884170;28;112464;-67
2021/07/31 00:08:30;;;;;;;8.02;5.05;;;;;;;20.28;58.09;99658.75;4885487;28;98268;-67
2021/07/31 00:10:56;;;;;;;7.30;5.45;;;;;;;20.31;58.27;99658.03;4884805;28;98133;-77
2021/07/31 00:13:23;;;;;;;6.60;4.93;;;;;;;20.30;57.96;99661.13;4886013;28;99100;-77
2021/07/31 00:15:49;;;;;;;6.03;4.68;;;;;;;20.30;57.79;99663.84;4903799;28;98183;-67
2021/07/31 00:18:15;;;;;;;6.05;5.28;;;;;;;20.31;57.29;99668.19;4903505;28;106303;-67
2021/07/31 00:20:41;;;;;;;5.70;5.10;;;;;;;20.30;57.42;99655.66;4903444;28;98002;-67
2021/07/31 00:23:08;;;;;;;6.18;5.13;;;;;;;20.31;57.69;99668.19;4935217;28;98500;-67
2021/07/31 00:25:34;;;;;;;5.75;5.25;;;;;;;20.31;58.21;99659.97;4901054;28;98374;-77
2021/07/31 00:28:00;;;;;;;5.80;5.20;;;;;;;20.28;58.26;99671.63;4884149;28;104188;-67
2021/07/31 00:30:27;;;;;;;7.60;6.13;;;;;;;20.24;58.56;99668.81;4883920;28;107514;-77
2021/07/31 00:32:54;;;;;;;9.30;6.88;;;;;;;20.21;58.50;99666.75;4884169;28;98932;-67
2021/07/31 00:35:20;;;;;;;9.63;7.72;;;;;;;20.19;58.65;99668.25;4884223;28;98199;-67
2021/07/31 00:37:46;;;;;;;11.35;7.65;;;;;;;20.14;58.80;99672.03;4885122;28;98086;-67
2021/07/31 00:40:13;;;;;;;9.52;7.07;;;;;;;20.09;59.11;99675.03;4883371;28;114561;-77
2021/07/31 00:42:42;;;;;;;10.00;6.60;;;;;;;20.03;58.95;99677.22;4898583;28;115210;-77
2021/07/31 00:45:12;;;;;;;10.52;6.38;;;;;;;19.96;58.56;99687.16;4912569;28;107342;-67
2021/07/31 00:47:40;;;;;;;7.88;6.45;;;;;;;19.92;59.15;99684.31;4884677;28;97903;-67
2021/07/31 00:50:07;;;;;;;7.30;5.47;;;;;;;19.89;58.68;99687.78;4881932;28;113123;-77
2021/07/31 00:52:33;;;;;;;5.82;5.22;;;;;;;19.84;58.89;99686.06;4888656;28;119366;-67
2021/07/31 00:54:59;;;;;;;7.07;5.60;;;;;;;19.83;59.27;99689.16;4916229;28;127445;-67
2021/07/31 00:57:25;;;;;;;7.40;5.57;;;;;;;19.83;58.94;99694.63;4901856;28;97920;-67
2021/07/31 00:59:51;;;;;;;6.07;5.20;;;;;;;19.82;59.02;99707.50;4901954;28;126371;-77
2021/07/31 01:02:18;;;;;;;8.48;4.85;;;;;;;19.84;59.10;99701.69;4916026;28;128699;-77
2021/07/31 01:04:44;;;;;;;7.22;5.50;;;;;;;19.85;58.37;99706.03;4893344;28;98436;-67
2021/07/31 01:07:10;;;;;;;8.00;5.20;;;;;;;19.87;58.27;99701.00;4881447;28;114820;-78
2021/07/31 01:09:36;;;;;;;7.50;5.10;;;;;;;19.86;57.86;99697.47;4881874;28;126015;-78
2021/07/31 01:12:03;;;;;;;5.40;4.90;;;;;;;19.88;58.76;99699.06;4897491;28;115050;-67
2021/07/31 01:14:29;;;;;;;7.28;5.05;;;;;;;19.89;58.74;99696.00;4882640;28;115604;-77
2021/07/31 01:16:55;;;;;;;7.70;5.25;;;;;;;19.90;58.61;99694.84;4882703;28;117899;-67
2021/07/31 01:19:21;;;;;;;6.70;4.43;;;;;;;19.91;58.24;99701.88;4882278;28;127547;-67
2021/07/31 01:21:47;;;;;;;6.38;5.25;;;;;;;19.91;58.25;99701.09;4895108;28;127922;-67
2021/07/31 01:24:15;;;;;;;7.80;5.00;;;;;;;19.92;58.00;99702.69;4902190;28;125784;-67
2021/07/31 01:26:46;;;;;;;5.50;4.72;;;;;;;19.92;57.79;99699.94;4901500;28;97827;-77
2021/07/31 01:29:14;;;;;;;6.97;4.65;;;;;;;19.96;58.08;99698.91;4916546;28;114295;-67
2021/07/31 01:31:41;;;;;;;5.82;4.93;;;;;;;19.98;57.70;99704.81;4902037;28;117567;-78
2021/07/31 01:34:07;;;;;;;7.25;4.88;;;;;;;20.00;58.10;99705.28;4902375;28;98721;-77
2021/07/31 01:36:33;;;;;;;5.10;4.60;;;;;;;20.01;57.71;99711.56;4903398;28;98110;-78
2021/07/31 01:39:00;;;;;;;5.93;4.80;;;;;;;20.02;57.68;99713.13;4901056;28;128095;-67
2021/07/31 01:41:26;;;;;;;7.10;4.80;;;;;;;20.04;58.07;99706.19;4932528;28;98453;-67
2021/07/31 01:43:52;;;;;;;6.82;4.15;;;;;;;20.08;57.44;99704.34;4899234;28;126157;-78
2021/07/31 01:46:19;;;;;;;5.65;4.88;;;;;;;20.09;57.85;99708.66;4916975;28;105514;-67
2021/07/31 01:48:45;;;;;;;7.20;4.70;;;;;;;20.11;57.59;99711.03;4900422;28;97907;-67
2021/07/31 01:51:11;;;;;;;8.75;4.75;;;;;;;20.13;57.75;99713.44;4881369;28;98826;-78
2021/07/31 01:53:38;;;;;;;7.43;4.97;;;;;;;20.13;57.97;99711.50;4882551;28;125906;-67
2021/07/31 01:56:04;;;;;;;6.75;4.72;;;;;;;20.13;57.60;99713.44;4883301;28;97816;-67
2021/07/31 01:58:30;;;;;;;6.13;4.90;;;;;;;20.14;57.52;99718.53;4913268;28;98058;-67
2021/07/31 02:00:57;;;;;;;7.07;4.97;;;;;;;20.13;57.78;99708.75;4899545;28;127586;-67
2021/07/31 02:03:23;;;;;;;7.32;4.72;;;;;;;20.14;57.83;99696.66;4899863;28;98098;-78
2021/07/31 02:05:49;;;;;;;6.88;5.00;;;;;;;20.12;57.90;99696.19;4916761;28;98007;-67
2021/07/31 02:08:15;;;;;;;6.07;4.57;;;;;;;20.11;57.68;99700.88;4915985;28;117080;-67
2021/07/31 02:10:42;;;;;;;7.72;4.78;;;;;;;20.13;57.36;99702.50;4899428;28;113959;-78
2021/07/31 02:13:08;;;;;;;6.50;5.05;;;;;;;20.11;57.27;99708.28;4933133;28;114448;-78
2021/07/31 02:15:38;;;;;;;7.22;4.97;;;;;;;20.10;57.63;99709.44;4915680;28;117495;-67
2021/07/31 02:18:04;;;;;;;6.32;4.82;;;;;;;20.10;57.63;99709.44;4921406;28;115555;-67
2021/07/31 02:20:30;;;;;;;6.70;5.20;;;;;;;20.08;58.03;99707.06;4878854;28;125131;-75
2021/07/31 02:22:56;;;;;;;6.32;4.93;;;;;;;20.09;57.77;99707.88;4881520;28;113319;-67
2021/07/31 02:25:22;;;;;;;5.50;5.00;;;;;;;20.09;57.50;99713.34;4882374;28;99826;-78
2021/07/31 02:27:50;;;;;;;6.25;4.95;;;;;;;20.07;58.14;99712.88;4881646;28;128092;-78
2021/07/31 02:30:16;;;;;;;5.28;4.78;;;;;;;20.08;57.61;99715.28;4882081;28;99053;-78
2021/07/31 02:32:42;;;;;;;6.22;4.88;;;;;;;20.08;57.74;99718.00;4881425;28;98076;-67
2021/07/31 02:35:10;;;;;;;6.22;4.80;;;;;;;20.07;57.44;99710.13;4881564;28;117923;-78
2021/07/31 02:37:36;;;;;;;5.70;4.85;;;;;;;20.06;57.57;99714.81;4882680;28;98157;-78
2021/07/31 02:40:03;;;;;;;6.25;5.40;;;;;;;20.04;57.59;99725.31;4879505;28;111276;-67
2021/07/31 02:42:29;;;;;;;6.18;5.10;;;;;;;20.02;58.09;99724.88;4881988;28;117549;-67
2021/07/31 02:44:55;;;;;;;6.78;5.45;;;;;;;19.98;57.58;99721.25;4884656;28;115701;-67
2021/07/31 02:47:21;;;;;;;6.38;5.25;;;;;;;19.94;58.21;99714.88;4900905;28;126976;-67
2021/07/31 02:49:47;;;;;;;6.15;5.55;;;;;;;19.92;58.57;99719.88;4932442;28;100538;-70
2021/07/31 02:52:13;;;;;;;6.38;5.15;;;;;;;19.92;58.32;99722.63;4901167;28;113937;-78
2021/07/31 02:54:39;;;;;;;7.10;5.60;;;;;;;19.90;58.39;99719.44;4915688;28;117802;-67
2021/07/31 02:57:05;;;;;;;5.93;4.97;;;;;;;19.91;57.98;99725.72;4900470;28;119871;-78
2021/07/31 02:59:31;;;;;;;7.90;5.55;;;;;;;19.92;58.27;99725.34;4901088;28;115444;-78
2021/07/31 03:01:57;;;;;;;7.72;5.55;;;;;;;19.91;58.12;99726.50;4900931;28;98317;-68
2021/07/31 03:04:24;;;;;;;7.30;5.47;;;;;;;19.93;58.34;99726.16;4901389;28;107020;-78
2021/07/31 03:06:50;;;;;;;6.10;5.40;;;;;;;19.95;58.43;99726.59;4931296;28;128055;-67
2021/07/31 03:09:16;;;;;;;5.90;4.88;;;;;;;19.96;58.39;99730.91;4894586;28;127353;-67
2021/07/31 03:11:42;;;;;;;6.40;5.50;;;;;;;19.98;58.19;99736.84;4880862;28;125586;-68
2021/07/31 03:14:08;;;;;;;6.65;5.65;;;;;;;19.99;58.47;99738.44;4892340;28;97809;-78
2021/07/31 03:16:34;;;;;;;6.25;5.63;;;;;;;20.00;58.68;99737.28;4901936;28;98794;-67
2021/07/31 03:19:00;;;;;;;7.28;5.40;;;;;;;20.02;58.36;99738.53;4899866;28;128208;-78
2021/07/31 03:21:26;;;;;;;6.57;5.35;;;;;;;20.04;58.10;99744.47;4901523;28;99749;-67
2021/07/31 03:23:52;;;;;;;6.38;5.32;;;;;;;20.07;58.22;99748.44;4915352;28;109915;-76
2021/07/31 03:26:18;;;;;;;5.53;4.78;;;;;;;20.07;58.00;99749.22;4900541;28;127489;-78
2021/07/31 03:28:44;;;;;;;6.75;4.90;;;;;;;20.09;57.96;99748.91;4915628;28;125848;-67
2021/07/31 03:31:18;;;;;;;5.78;5.18;;;;;;;20.09;57.90;99754.38;4900471;28;126491;-78
2021/07/31 03:33:44;;;;;;;5.15;4.68;;;;;;;20.13;58.36;99758.00;4904527;28;97955;-77
2021/07/31 03:36:10;;;;;;;6.60;5.07;;;;;;;20.15;57.91;99749.44;4902981;28;127676;-66
2021/07/31 03:38:36;;;;;;;5.30;4.40;;;;;;;20.17;57.58;99749.91;4903482;28;128775;-78
2021/07/31 03:41:02;;;;;;;5.95;4.50;;;;;;;20.18;57.72;99749.53;4903054;28;126956;-77
2021/07/31 03:43:28;;;;;;;7.80;4.90;;;;;;;20.21;57.66;99743.38;4900355;28;116107;-67
2021/07/31 03:45:54;;;;;;;5.20;4.70;;;;;;;20.23;57.33;99743.00;4883145;28;98532;-77
2021/07/31 03:48:21;;;;;;;5.60;4.70;;;;;;;20.26;57.10;99753.25;4898237;28;127832;-67
2021/07/31 03:50:47;;;;;;;5.93;4.43;;;;;;;20.27;57.29;99752.91;4882623;28;98888;-67
2021/07/31 03:53:13;;;;;;;5.07;4.57;;;;;;;20.30;57.58;99759.63;4884547;28;117205;-78
2021/07/31 03:55:39;;;;;;;6.00;4.63;;;;;;;20.33;57.33;99764.41;4914343;28;128221;-67
2021/07/31 03:58:05;;;;;;;5.30;4.20;;;;;;;20.33;56.89;99762.47;4883763;28;98753;-67
2021/07/31 04:00:31;;;;;;;6.75;4.32;;;;;;;20.38;57.18;99766.88;4883413;28;122231;-67
2021/07/31 04:02:57;;;;;;;5.40;4.60;;;;;;;20.41;56.87;99760.72;4899036;28;97907;-77
2021/07/31 04:05:23;;;;;;;7.05;4.72;;;;;;;20.44;56.77;99768.22;4884247;28;108720;-78
2021/07/31 04:07:50;;;;;;;5.40;4.30;;;;;;;20.46;56.67;99770.59;4883612;28;127708;-68
2021/07/31 04:10:16;;;;;;;6.10;4.53;;;;;;;20.47;56.19;99778.47;4888784;28;127517;-67
2021/07/31 04:12:42;;;;;;;7.25;4.80;;;;;;;20.49;56.06;99775.41;4903903;28;109267;-67
2021/07/31 04:15:09;;;;;;;5.50;4.57;;;;;;;20.51;55.88;99773.13;4902900;28;126898;-67
2021/07/31 04:17:37;;;;;;;5.60;4.05;;;;;;;20.53;56.04;99779.84;4903481;28;97660;-67
2021/07/31 04:20:04;;;;;;;6.93;3.97;;;;;;;20.56;56.23;99779.16;4934553;28;98687;-67
2021/07/31 04:22:30;;;;;;;4.38;3.97;;;;;;;20.56;56.23;99790.09;4903285;28;106164;-67
2021/07/31 04:24:56;;;;;;;6.38;4.25;;;;;;;20.59;56.19;99794.06;4902527;28;129583;-67
2021/07/31 04:27:24;;;;;;;5.57;4.20;;;;;;;20.59;56.49;99802.25;4903225;28;127415;-67
2021/07/31 04:29:50;;;;;;;5.47;4.30;;;;;;;20.56;56.35;99814.72;4904328;28;97877;-67
2021/07/31 04:32:16;;;;;;;5.20;4.32;;;;;;;20.57;56.64;99813.56;4917472;28;116493;-77
2021/07/31 04:34:42;;;;;;;6.25;4.47;;;;;;;20.59;56.96;99816.78;4902586;28;125518;-78
2021/07/31 04:37:08;;;;;;;4.82;4.40;;;;;;;20.63;56.64;99816.06;4900339;28;127994;-78
2021/07/31 04:39:37;;;;;;;5.20;4.65;;;;;;;20.62;56.30;99823.47;4904317;28;98221;-78
2021/07/31 04:42:04;;;;;;;5.10;4.60;;;;;;;20.64;56.70;99820.41;4884335;28;97977;-67
2021/07/31 04:44:30;;;;;;;5.93;4.53;;;;;;;20.68;56.83;99822.09;4883044;28;98507;-77
2021/07/31 04:46:56;;;;;;;5.95;4.50;;;;;;;20.77;56.54;99828.19;4882855;28;127379;-68
2021/07/31 04:49:22;;;;;;;5.43;4.40;;;;;;;20.87;55.99;99831.53;4882689;28;127509;-67
2021/07/31 04:51:48;;;;;;;6.55;3.97;;;;;;;20.94;56.04;99823.53;4882295;28;98186;-68
2021/07/31 04:54:15;;;;;;;4.97;4.47;;;;;;;21.04;56.03;99829.28;4883081;28;126224;-77
2021/07/31 04:56:42;;;;;;;5.03;4.35;;;;;;;21.18;55.84;99819.81;4884042;28;98004;-68
2021/07/31 04:59:08;;;;;;;4.88;3.90;;;;;;;21.31;55.38;99824.06;4881232;28;114049;-78
2021/07/31 05:01:34;;;;;;;4.53;4.03;;;;;;;21.40;55.16;99832.13;4884328;28;97813;-68
2021/07/31 05:04:00;;;;;;;5.15;4.10;;;;;;;21.45;55.47;99824.44;4881951;28;127292;-68
2021/07/31 05:06:26;;;;;;;5.20;4.50;;;;;;;21.49;55.23;99819.03;4884689;28;126062;-78
2021/07/31 05:08:52;;;;;;;9.50;4.38;;;;;;;21.56;55.32;99819.19;4902481;28;114111;-68
2021/07/31 05:11:21;;;;;;;6.07;4.35;;;;;;;21.64;54.79;99822.91;4933037;28;118329;-78
2021/07/31 05:13:50;;;;;;;7.22;4.60;;;;;;;21.71;54.31;99821.13;4903004;28;99507;-78
2021/07/31 05:16:17;;;;;;;6.47;5.07;;;;;;;21.80;53.78;99829.13;4903721;28;98481;-78
2021/07/31 05:18:43;;;;;;;10.15;6.40;;;;;;;21.90;53.84;99825.84;4934363;28;98438;-78
2021/07/31 05:21:09;;;;;;;6.65;5.63;;;;;;;22.00;53.61;99821.72;4917466;28;98176;-79
2021/07/31 05:23:40;;;;;;;8.45;5.50;;;;;;;22.11;53.20;99835.69;4902664;28;98968;-68
2021/07/31 05:26:10;;;;;;;6.20;5.50;;;;;;;22.22;53.33;99829.31;4933019;28;98681;-78
2021/07/31 05:28:36;;;;;;;5.40;4.75;;;;;;;22.37;52.86;99824.09;4917203;28;98344;-78
2021/07/31 05:31:02;;;;;;;5.75;4.38;;;;;;;22.50;52.65;99829.06;4902411;28;103120;-68
2021/07/31 05:33:28;;;;;;;5.10;4.60;;;;;;;22.64;52.39;99836.00;4916238;28;127595;-68
2021/07/31 05:35:54;;;;;;;5.68;4.28;;;;;;;22.79;52.08;99827.69;4872062;28;128585;-78
2021/07/31 05:38:20;;;;;;;4.88;4.35;;;;;;;22.96;51.51;99831.13;4912521;28;127458;-68
2021/07/31 05:40:46;;;;;;;4.68;4.20;;;;;;;23.08;51.59;99830.94;4881005;28;104233;-68
2021/07/31 05:43:12;;;;;;;4.63;4.07;;;;;;;23.24;51.16;99841.81;4880204;28;119090;-78
2021/07/31 05:45:38;;;;;;;4.28;3.80;;;;;;;23.37;50.63;99834.94;4882990;28;97911;-68
2021/07/31 05:48:04;;;;;;;5.75;4.10;;;;;;;23.51;50.42;99835.19;4880893;28;125569;-68
2021/07/31 05:50:30;;;;;;;5.43;3.90;;;;;;;23.68;50.34;99839.38;4879268;28;116772;-78
2021/07/31 05:52:56;;;;;;;6.07;3.70;;;;;;;23.83;49.84;99837.63;4898352;28;128926;-68
2021/07/31 05:55:23;;;;;;;4.30;3.47;;;;;;;24.02;49.45;99847.72;4912537;28;128345;-68
2021/07/31 05:57:49;;;;;;;4.60;3.53;;;;;;;24.19;48.68;99835.34;4900028;28;97975;-68
2021/07/31 06:00:15;;;;;;;4.50;3.30;;;;;;;24.34;47.62;99845.38;4897843;28;98085;-79
2021/07/31 06:02:41;;;;;;;4.55;3.25;;;;;;;24.52;47.64;99839.31;4897909;28;98831;-68
2021/07/31 06:05:08;;;;;;;5.43;3.17;;;;;;;24.69;46.82;99835.97;4880673;28;98414;-68
2021/07/31 06:07:34;;;;;;;3.97;3.10;;;;;;;24.92;46.82;99842.13;4896756;28;104853;-78
2021/07/31 06:10:00;;;;;;;4.47;3.10;;;;;;;25.18;46.04;99837.63;4896459;28;117223;-79
2021/07/31 06:12:26;;;;;;;3.55;2.72;;;;;;;25.86;44.84;99844.47;4895751;28;127601;-69
2021/07/31 06:14:52;;;;;;;4.18;3.10;;;;;;;26.83;42.62;99834.59;4896077;28;128238;-78
2021/07/31 06:17:18;;;;;;;4.43;2.67;;;;;;;27.39;41.78;99833.09;4879799;28;125641;-79
2021/07/31 06:19:44;;;;;;;4.78;2.70;;;;;;;28.23;40.58;99837.28;4913988;28;98205;-79
2021/07/31 06:22:10;;;;;;;3.10;2.80;;;;;;;29.02;39.19;99838.47;4897446;28;125417;-68
2021/07/31 06:24:37;;;;;;;3.13;2.33;;;;;;;29.96;37.82;99843.97;4896418;28;114882;-68
2021/07/31 06:27:03;;;;;;;3.03;2.35;;;;;;;30.45;36.47;99858.47;4897659;28;127597;-68
2021/07/31 06:29:29;;;;;;;3.75;2.10;;;;;;;30.99;35.13;99844.63;4896944;28;109203;-78
2021/07/31 06:31:55;;;;;;;2.50;1.60;;;;;;;32.59;32.19;99849.28;4898897;28;103568;-78
2021/07/31 06:34:21;;;;;;;3.70;2.28;;;;;;;32.74;31.25;99855.34;4898507;28;103871;-77
2021/07/31 06:36:48;;;;;;;2.90;1.70;;;;;;;33.06;30.97;99846.22;4898349;28;98295;-68
2021/07/31 06:39:14;;;;;;;5.38;1.58;;;;;;;33.20;31.00;99843.06;4899301;28;97990;-78
2021/07/31 06:41:40;;;;;;;2.53;1.60;;;;;;;33.43;30.56;99847.69;4879886;28;126798;-78
2021/07/31 06:44:06;;;;;;;3.45;1.67;;;;;;;33.74;29.81;99840.94;4879617;28;128220;-68
2021/07/31 06:46:32;;;;;;;3.20;1.92;;;;;;;33.98;29.00;99852.69;4896860;28;114720;-78
2021/07/31 06:49:01;;;;;;;5.43;1.70;;;;;;;33.85;29.38;99847.81;4880656;28;116771;-78
2021/07/31 06:51:27;;;;;;;2.05;1.77;;;;;;;33.83;28.76;99843.88;4898226;28;99182;-68
2021/07/31 06:53:53;;;;;;;3.83;1.75;;;;;;;33.29;29.43;99839.69;4897457;28;127908;-78
2021/07/31 06:56:19;;;;;;;3.47;1.60;;;;;;;33.56;29.15;99833.03;4896342;28;98137;-68
2021/07/31 06:58:45;;;;;;;4.07;1.60;;;;;;;33.03;28.70;99846.31;4897135;28;117949;-68
2021/07/31 07:01:12;;;;;;;2.65;1.20;;;;;;;32.67;29.16;99831.16;4896861;28;128106;-68
2021/07/31 07:03:38;;;;;;;1.80;1.40;;;;;;;32.52;29.40;99832.69;4895557;28;114344;-69
2021/07/31 07:06:05;;;;;;;3.25;1.33;;;;;;;32.55;28.91;99819.91;4895983;28;118233;-78
2021/07/31 07:08:32;;;;;;;2.78;1.65;;;;;;;32.66;29.02;99821.22;4901212;28;97987;-69
2021/07/31 07:10:58;;;;;;;2.80;1.45;;;;;;;32.70;28.72;99830.31;4901974;28;98622;-78
2021/07/31 07:13:24;;;;;;;2.10;1.35;;;;;;;32.16;29.71;99825.06;4899924;28;98432;-68
2021/07/31 07:15:50;;;;;;;2.67;1.60;;;;;;;32.48;29.02;99830.00;4900293;28;126613;-68
2021/07/31 07:18:17;;;;;;;2.55;1.40;;;;;;;31.34;30.78;99825.81;4900502;28;117796;-78
2021/07/31 07:20:43;;;;;;;4.43;1.45;;;;;;;31.78;29.67;99822.59;4882917;28;98439;-78
2021/07/31 07:23:09;;;;;;;3.78;1.30;;;;;;;32.15;29.81;99820.72;4901308;28;98588;-78
2021/07/31 07:25:36;;;;;;;2.75;1.10;;;;;;;32.48;28.43;99813.25;4899516;28;126563;-69
2021/07/31 07:28:02;;;;;;;1.83;1.10;;;;;;;32.22;28.77;99811.41;4899927;28;98485;-78
2021/07/31 07:30:28;;;;;;;2.72;1.50;;;;;;;32.65;28.70;99816.06;4900690;28;104982;-78
2021/07/31 07:32:55;;;;;;;1.75;0.95;;;;;;;32.96;27.62;99813.78;4899894;28;126571;-77
2021/07/31 07:35:21;;;;;;;2.35;0.75;;;;;;;32.52;28.61;99817.97;4899378;28;98204;-78
2021/07/31 07:37:47;;;;;;;1.85;0.70;;;;;;;32.85;27.89;99822.38;4899934;28;97753;-68
2021/07/31 07:40:14;;;;;;;2.88;0.90;;;;;;;32.95;27.77;99820.59;4866280;28;116614;-69
2021/07/31 07:42:40;;;;;;;1.77;0.63;;;;;;;33.09;27.35;99823.03;4898796;28;98309;-69
2021/07/31 07:45:07;;;;;;;2.22;0.43;;;;;;;32.89;26.70;99823.06;4900909;28;115651;-78
2021/07/31 07:47:34;;;;;;;2.25;0.55;;;;;;;33.52;26.05;99815.59;4901430;28;98053;-69
2021/07/31 07:50:01;;;;;;;2.55;0.63;;;;;;;32.81;26.52;99823.69;4901153;28;98752;-69
2021/07/31 07:52:27;;;;;;;2.47;0.52;;;;;;;33.18;26.19;99811.25;4898895;28;115997;-78
2021/07/31 07:54:53;;;;;;;2.05;0.68;;;;;;;33.75;25.40;99822.94;4865505;28;126314;-69
2021/07/31 07:57:19;;;;;;;1.75;0.50;;;;;;;33.04;25.81;99815.16;4883426;28;116729;-78
2021/07/31 07:59:45;;;;;;;1.50;0.40;;;;;;;33.91;24.86;99818.06;4891991;28;98656;-78
2021/07/31 08:02:11;;;;;;;2.05;0.43;;;;;;;34.47;24.21;99818.88;4900252;28;98389;-78
2021/07/31 08:04:37;;;;;;;1.55;0.40;;;;;;;35.06;23.56;99815.47;4899557;28;126724;-78
2021/07/31 08:07:03;;;;;;;1.70;0.20;;;;;;;35.18;22.56;99819.47;4901109;28;98245;-78
2021/07/31 08:09:30;;;;;;;1.95;0.30;;;;;;;36.01;21.55;99809.00;4881532;28;122139;-69
2021/07/31 08:11:56;;;;;;;2.20;0.50;;;;;;;36.61;21.68;99800.31;4900224;28;98476;-78
2021/07/31 08:14:22;;;;;;;1.70;0.30;;;;;;;37.28;20.95;99799.53;4897671;28;126213;-68
2021/07/31 08:16:48;;;;;;;4.50;0.50;;;;;;;37.86;21.12;99800.66;4901293;28;98252;-74
2021/07/31 08:19:14;;;;;;;2.33;0.68;;;;;;;38.50;19.78;99796.94;4897966;28;127227;-66
2021/07/31 08:21:40;;;;;;;2.88;0.40;;;;;;;38.94;18.71;99802.81;4899376;28;98538;-75
2021/07/31 08:24:07;;;;;;;3.25;0.40;;;;;;;39.49;18.17;99798.88;4898560;28;98114;-75
2021/07/31 08:26:33;;;;;;;2.58;0.30;;;;;;;40.10;18.38;99801.31;4883055;28;98009;-66
2021/07/31 08:28:59;;;;;;;2.13;0.45;;;;;;;40.78;17.99;99789.06;4899942;28;108131;-66
2021/07/31 08:31:25;;;;;;;3.03;0.40;;;;;;;41.14;17.60;99785.72;4899187;28;127910;-75
2021/07/31 08:33:51;;;;;;;2.05;0.40;;;;;;;39.85;18.44;99785.72;4899293;28;100831;-66
2021/07/31 08:36:17;;;;;;;1.80;0.30;;;;;;;41.11;17.48;99783.09;4901438;28;98121;-74
2021/07/31 08:38:43;;;;;;;1.20;0.35;;;;;;;40.28;18.22;99780.56;4899840;28;127751;-75
2021/07/31 08:41:09;;;;;;;1.17;0.40;;;;;;;41.29;17.03;99773.56;4899313;28;127771;-76
2021/07/31 08:43:35;;;;;;;3.33;0.40;;;;;;;42.29;16.30;99775.88;4899798;28;127124;-65
2021/07/31 08:46:05;;;;;;;2.05;0.40;;;;;;;42.78;15.76;99774.69;4883044;28;98204;-66
2021/07/31 08:48:31;;;;;;;1.87;0.40;;;;;;;43.22;15.08;99778.25;4898617;28;99247;-67
2021/07/31 08:50:59;;;;;;;2.17;0.30;;;;;;;43.57;15.38;99770.13;4897444;28;118213;-66
2021/07/31 08:53:25;;;;;;;2.35;0.50;;;;;;;44.11;14.89;99772.00;4897172;28;98228;-75
2021/07/31 08:55:52;;;;;;;1.13;0.30;;;;;;;44.80;13.94;99777.06;4900301;28;97931;-67
2021/07/31 08:58:18;;;;;;;2.47;0.40;;;;;;;45.17;13.52;99756.81;4899689;28;98296;-67
2021/07/31 09:00:44;;;;;;;1.60;0.40;;;;;;;45.47;13.61;99770.34;4898844;28;126288;-67
2021/07/31 09:03:15;;;;;;;1.35;0.30;;;;;;;44.69;14.10;99768.59;4899485;28;117516;-66
2021/07/31 09:05:41;;;;;;;1.63;0.30;;;;;;;45.56;13.32;99764.38;4899949;28;97996;-76
2021/07/31 09:08:08;;;;;;;3.33;0.40;;;;;;;45.87;13.17;99757.44;4897930;28;98328;-67
2021/07/31 09:10:39;;;;;;;2.83;0.50;;;;;;;46.16;13.61;99740.88;4863064;28;98301;-67
2021/07/31 09:13:10;;;;;;;2.38;0.40;;;;;;;46.01;12.87;99749.81;4893159;28;98416;-66
2021/07/31 09:15:45;;;;;;;2.83;0.40;;;;;;;45.94;13.18;99742.63;4899611;28;98105;-76
2021/07/31 09:18:30;;;;;;;3.20;0.60;;;;;;;44.84;13.71;99737.81;4898608;28;99094;-69
2021/07/31 09:21:13;;;;;;;4.10;0.60;;;;;;;44.18;14.16;99743.09;4899372;28;98706;-77
2021/07/31 09:23:44;;;;;;;1.35;0.20;;;;;;;43.14;14.71;99735.44;4898010;28;98412;-66
2021/07/31 09:26:15;;;;;;;3.15;0.30;;;;;;;43.27;14.78;99737.78;4899188;28;98367;-67
2021/07/31 09:28:41;;;;;;;;;;;;;;;42.45;16.23;99746.13;4893817;28;97906;-77
2021/07/31 09:31:15;;;;;;;3.25;0.43;;;;;;;41.71;15.78;99738.31;4896768;28;99363;-77
2021/07/31 09:33:46;;;;;;;2.28;0.40;;;;;;;41.58;15.84;99744.34;4897547;28;98024;-66
2021/07/31 09:36:12;;;;;;;1.67;0.40;;;;;;;41.59;15.58;99737.44;4900763;28;98166;-66
2021/07/31 09:38:41;;;;;;;2.92;0.40;;;;;;;41.19;16.01;99742.63;4899312;28;103452;-76
2021/07/31 09:41:29;;;;;;;1.85;0.50;;;;;;;41.81;15.59;99743.28;4898986;28;98418;-66
2021/07/31 09:44:15;;;;;;;1.92;0.30;;;;;;;40.84;16.37;99731.41;4898134;28;98476;-77
2021/07/31 09:46:47;;;;;;;1.70;0.50;;;;;;;42.18;15.35;99743.38;4900157;28;97982;-75
2021/07/31 09:49:18;;;;;;;3.97;0.30;;;;;;;41.73;15.65;99745.00;4880178;28;98360;-77
2021/07/31 09:51:58;;;;;;;2.90;0.40;;;;;;;41.92;15.38;99734.91;4881121;28;98262;-66
2021/07/31 09:54:25;;;;;;;1.80;0.40;;;;;;;43.01;14.52;99746.47;4899423;28;98039;-67
2021/07/31 09:56:52;;;;;;;3.75;0.40;;;;;;;42.58;15.23;99735.94;4898083;28;98145;-77
2021/07/31 09:59:21;;;;;;;2.78;0.50;;;;;;;43.76;14.01;99733.53;4896994;28;99349;-76
2021/07/31 10:01:57;;;;;;;2.85;0.30;;;;;;;42.04;15.53;99726.53;4898787;28;98649;-66
2021/07/31 10:04:23;;;;;;;3.05;0.40;;;;;;;41.38;15.91;99737.44;4898551;28;98129;-77
2021/07/31 10:06:49;;;;;;;3.28;0.50;;;;;;;41.98;15.74;99737.81;4896785;28;117590;-66
2021/07/31 10:09:15;;;;;;;2.33;0.30;;;;;;;41.01;16.56;99723.16;4896319;28;98390;-77
2021/07/31 10:11:44;;;;;;;2.45;0.40;;;;;;;38.79;17.42;99734.41;4897361;28;127908;-66
2021/07/31 10:14:10;;;;;;;1.80;0.30;;;;;;;37.37;19.21;99727.75;4899019;28;98427;-67
2021/07/31 10:16:38;;;;;;;2.65;0.38;;;;;;;36.51;19.50;99717.34;4898747;28;97919;-77
2021/07/31 10:19:06;;;;;;;5.45;0.50;;;;;;;36.69;19.53;99723.00;4897029;28;98417;-66
2021/07/31 10:21:59;;;;;;;3.55;0.40;;;;;;;37.35;18.62;99719.81;4896690;28;98472;-66
2021/07/31 10:24:26;;;;;;;2.30;0.40;;;;;;;35.79;19.99;99714.47;4883571;28;98054;-77
2021/07/31 10:27:17;;;;;;;2.95;0.32;;;;;;;36.46;19.35;99704.69;4881340;28;98180;-66
2021/07/31 10:29:44;;;;;;;1.27;0.50;;;;;;;38.47;18.73;99721.91;4899284;28;98370;-77
2021/07/31 10:32:22;;;;;;;1.85;0.50;;;;;;;39.70;17.65;99732.94;4880134;28;103896;-76
2021/07/31 10:34:59;;;;;;;2.13;0.55;;;;;;;40.31;17.15;99734.47;4898701;28;98162;-66
2021/07/31 10:37:28;;;;;;;4.75;0.40;;;;;;;38.42;18.62;99728.97;4883161;28;97691;-67
2021/07/31 10:40:01;;;;;;;1.40;0.22;;;;;;;37.04;19.44;99725.59;4898083;28;98585;-76
2021/07/31 10:43:02;;;;;;;1.63;0.30;;;;;;;36.46;19.54;99727.16;4897451;28;98567;-66
2021/07/31 10:45:30;;;;;;;2.40;0.38;;;;;;;37.54;18.75;99727.00;4886785;28;98061;-66
2021/07/31 10:48:26;;;;;;;1.80;0.45;;;;;;;38.62;17.74;99734.03;4881426;28;97963;-76
2021/07/31 10:50:52;;;;;;;2.85;0.45;;;;;;;39.55;16.90;99740.56;4877068;28;98254;-76
2021/07/31 10:53:21;;;;;;;3.17;0.40;;;;;;;38.37;18.15;99735.25;4864221;28;114108;-67
2021/07/31 10:55:46;;;;;;;1.92;0.30;;;;;;;39.87;17.21;99736.03;4897984;28;98314;-66
2021/07/31 10:58:17;;;;;;;1.08;0.30;;;;;;;39.11;17.76;99729.97;4898772;28;98103;-66
2021/07/31 11:00:52;;;;;;;1.52;0.30;;;;;;;40.13;16.83;99741.13;4896244;28;98749;-76
2021/07/31 11:03:20;;;;;;;1.75;0.40;;;;;;;40.84;16.49;99730.63;4896151;28;100225;-77
2021/07/31 11:05:49;;;;;;;2.20;0.40;;;;;;;40.38;16.98;99726.38;4898105;28;98896;-76
2021/07/31 11:08:18;;;;;;;1.75;0.40;;;;;;;39.93;16.71;99727.66;4898542;28;98017;-77
2021/07/31 11:10:46;;;;;;;2.67;0.32;;;;;;;40.55;16.58;99720.22;4897625;28;99151;-66
2021/07/31 11:13:17;;;;;;;1.92;0.47;;;;;;;40.12;16.99;99717.75;4897689;28;99257;-77
2021/07/31 11:15:55;;;;;;;4.45;0.40;;;;;;;39.51;17.21;99720.25;4898630;28;98077;-66
2021/07/31 11:18:54;;;;;;;1.58;0.40;;;;;;;40.23;16.67;99728.44;4898162;28;98082;-76
2021/07/31 11:21:31;;;;;;;3.30;0.30;;;;;;;38.13;17.94;99720.34;4896705;28;98099;-76
2021/07/31 11:24:08;;;;;;;1.95;0.40;;;;;;;38.66;17.49;99731.81;4897218;28;98877;-66
2021/07/31 11:26:50;;;;;;;1.90;0.30;;;;;;;38.72;17.54;99721.47;4897266;28;98144;-67
2021/07/31 11:29:21;;;;;;;2.72;0.30;;;;;;;39.18;17.86;99721.13;4897860;28;98016;-66
2021/07/31 11:32:03;;;;;;;2.25;0.40;;;;;;;39.46;17.29;99726.56;4896530;28;98997;-76